createdAt,value
2022-12-28T00:02:16.379Z,80.08
2022-12-28T00:04:43.137Z,80.29
2022-12-28T00:07:09.849Z,80.62
2022-12-28T00:09:36.573Z,80.42
2022-12-28T00:12:03.344Z,80.22
2022-12-28T00:14:30.204Z,80.36
2022-12-28T00:16:56.965Z,80.50
2022-12-28T00:19:23.699Z,80.47
2022-12-28T00:21:53.826Z,80.63
2022-12-28T00:24:23.451Z,80.96
2022-12-28T00:26:50.656Z,80.42
2022-12-28T00:29:17.898Z,81.04
2022-12-28T00:31:47.848Z,80.41
2022-12-28T00:34:14.849Z,80.85
2022-12-28T00:37:11.035Z,80.44
2022-12-28T00:39:28.603Z,80.91
2022-12-28T00:41:55.245Z,80.77
2022-12-28T00:44:22.005Z,80.88
2022-12-28T00:46:48.678Z,81.07
2022-12-28T00:49:15.289Z,80.88
2022-12-28T00:51:41.932Z,81.02
2022-12-28T00:54:08.803Z,80.78
2022-12-28T00:56:35.602Z,81.25
2022-12-28T00:59:02.427Z,81.50
2022-12-28T01:01:29.851Z,81.46
2022-12-28T01:03:58.160Z,80.89
2022-12-28T01:06:25.777Z,81.03
2022-12-28T01:08:52.524Z,81.18
2022-12-28T01:11:25.486Z,81.46
2022-12-28T01:13:53.410Z,81.44
2022-12-28T01:16:33.654Z,81.38
2022-12-28T01:19:02.732Z,81.50
2022-12-28T01:21:32.120Z,81.30
2022-12-28T01:24:01.097Z,81.00
2022-12-28T01:26:28.348Z,81.16
2022-12-28T01:28:55.538Z,81.14
2022-12-28T01:31:22.753Z,80.94
2022-12-28T01:33:49.561Z,81.55
2022-12-28T01:36:22.074Z,81.20
2022-12-28T01:38:53.274Z,81.40
2022-12-28T01:41:20.838Z,81.61
2022-12-28T01:43:53.584Z,81.50
2022-12-28T01:46:43.055Z,81.26
2022-12-28T01:49:18.549Z,81.13
2022-12-28T01:51:57.438Z,81.09
2022-12-28T01:54:26.482Z,81.00
2022-12-28T01:56:53.814Z,81.94
2022-12-28T01:59:24.712Z,81.49
2022-12-28T02:01:52.033Z,81.56
2022-12-28T02:04:18.805Z,81.58
2022-12-28T02:06:46.518Z,81.83
2022-12-28T02:09:23.225Z,81.87
2022-12-28T02:11:50.600Z,81.53
2022-12-28T02:14:19.527Z,81.54
2022-12-28T02:16:46.567Z,81.50
2022-12-28T02:19:21.160Z,81.90
2022-12-28T02:22:06.539Z,82.25
2022-12-28T02:24:48.099Z,81.71
2022-12-28T02:27:59.659Z,82.31
2022-12-28T02:30:26.836Z,82.26
2022-12-28T02:33:49.663Z,82.47
2022-12-28T02:36:34.796Z,82.48
2022-12-28T02:39:18.779Z,82.41
2022-12-28T02:41:47.187Z,82.71
2022-12-28T02:44:34.033Z,82.45
2022-12-28T02:47:27.451Z,82.98
2022-12-28T02:50:06.179Z,82.68
2022-12-28T02:53:03.779Z,82.50
2022-12-28T02:56:08.696Z,82.67
2022-12-28T02:58:54.086Z,83.01
2022-12-28T03:01:23.470Z,83.34
2022-12-28T03:04:05.604Z,83.28
2022-12-28T03:07:11.952Z,83.08
2022-12-28T03:10:15.712Z,82.87
2022-12-28T03:12:56.583Z,82.99
2022-12-28T03:15:30.955Z,82.73
2022-12-28T03:18:24.180Z,82.87
2022-12-28T03:21:13.947Z,83.32
2022-12-28T03:24:03.177Z,83.17
2022-12-28T03:26:51.808Z,83.60
2022-12-28T03:29:39.307Z,83.23
2022-12-28T03:32:06.979Z,83.52
2022-12-28T03:34:34.306Z,83.50
2022-12-28T03:37:17.441Z,83.64
2022-12-28T03:39:57.849Z,83.81
2022-12-28T03:42:54.629Z,83.29
2022-12-28T03:45:49.772Z,83.61
2022-12-28T03:48:18.187Z,83.53
2022-12-28T03:50:47.881Z,84.03
2022-12-28T03:53:19.816Z,83.57
2022-12-28T03:55:46.491Z,83.73
2022-12-28T03:58:13.228Z,83.40
2022-12-28T04:00:39.902Z,83.52
2022-12-28T04:03:06.777Z,83.59
2022-12-28T04:05:33.649Z,83.69
2022-12-28T04:08:00.372Z,83.76
2022-12-28T04:10:27.088Z,83.92
2022-12-28T04:12:57.079Z,83.87
2022-12-28T04:15:24.055Z,84.13
2022-12-28T04:17:50.817Z,83.54
2022-12-28T04:20:17.692Z,83.74
2022-12-28T04:22:44.476Z,83.54
2022-12-28T04:25:11.125Z,83.65
2022-12-28T04:27:37.803Z,83.69
2022-12-28T04:30:05.308Z,84.22
2022-12-28T04:32:32.063Z,84.37
2022-12-28T04:34:58.678Z,84.12
2022-12-28T04:37:25.384Z,84.00
2022-12-28T04:39:54.901Z,84.25
2022-12-28T04:42:25.251Z,84.00
2022-12-28T04:44:52.122Z,84.16
2022-12-28T04:47:18.926Z,84.18
2022-12-28T04:49:45.594Z,84.55
2022-12-28T04:52:12.528Z,84.25
2022-12-28T04:54:39.305Z,84.21
2022-12-28T04:57:06.848Z,84.55
2022-12-28T04:59:33.719Z,84.08
2022-12-28T05:02:00.627Z,84.73
2022-12-28T05:04:27.437Z,84.84
2022-12-28T05:06:54.071Z,84.19
2022-12-28T05:09:20.847Z,84.70
2022-12-28T05:11:47.454Z,84.72
2022-12-28T05:14:14.820Z,84.54
2022-12-28T05:16:42.401Z,84.60
2022-12-28T05:19:09.274Z,84.79
2022-12-28T05:21:36.302Z,84.48
2022-12-28T05:24:03.045Z,84.64
2022-12-28T05:26:29.895Z,84.93
2022-12-28T05:28:58.622Z,84.58
2022-12-28T05:31:25.647Z,84.61
2022-12-28T05:33:52.764Z,84.84
2022-12-28T05:36:22.295Z,84.82
2022-12-28T05:38:49.232Z,84.62
2022-12-28T05:41:21.740Z,84.95
2022-12-28T05:43:48.540Z,84.55
2022-12-28T05:46:19.415Z,84.92
2022-12-28T05:48:46.658Z,84.64
2022-12-28T05:51:16.563Z,84.84
2022-12-28T05:53:43.699Z,84.77
2022-12-28T05:56:18.816Z,84.92
2022-12-28T05:58:52.068Z,85.01
2022-12-28T06:01:20.846Z,84.71
2022-12-28T06:03:52.351Z,84.74
2022-12-28T06:06:20.178Z,85.15
2022-12-28T06:08:48.669Z,85.02
2022-12-28T06:11:18.584Z,84.96
2022-12-28T06:13:45.342Z,85.16
2022-12-28T06:16:21.495Z,85.00
2022-12-28T06:18:48.950Z,85.04
2022-12-28T06:21:26.955Z,85.06
2022-12-28T06:23:57.631Z,84.94
2022-12-28T06:26:24.305Z,84.70
2022-12-28T06:28:51.107Z,84.83
2022-12-28T06:31:23.464Z,85.23
2022-12-28T06:33:54.100Z,85.16
2022-12-28T06:36:24.618Z,84.91
2022-12-28T06:38:52.572Z,85.02
2022-12-28T06:41:20.935Z,85.18
2022-12-28T06:43:48.905Z,84.95
2022-12-28T06:46:17.119Z,84.75
2022-12-28T06:48:44.402Z,84.94
2022-12-28T06:51:40.704Z,84.79
2022-12-28T06:54:08.534Z,85.27
2022-12-28T06:56:36.188Z,85.28
2022-12-28T06:59:04.139Z,84.89
2022-12-28T07:01:32.691Z,84.82
2022-12-28T07:04:00.431Z,85.26
2022-12-28T07:06:29.361Z,84.94
2022-12-28T07:09:04.814Z,84.94
2022-12-28T07:11:31.784Z,84.84
2022-12-28T07:52:08.404Z,85.15
2022-12-28T07:54:35.147Z,85.47
2022-12-28T07:57:01.779Z,85.07
2022-12-28T07:59:31.158Z,85.74
2022-12-28T08:01:58.302Z,85.04
2022-12-28T08:04:25.039Z,85.45
2022-12-28T08:06:51.739Z,85.07
2022-12-28T08:09:18.491Z,85.21
2022-12-28T08:11:46.097Z,85.00
2022-12-28T08:14:12.966Z,85.21
2022-12-28T08:16:42.435Z,85.47
2022-12-28T08:19:09.608Z,85.19
2022-12-28T08:21:42.698Z,85.31
2022-12-28T08:24:13.136Z,85.27
2022-12-28T08:26:40.679Z,84.88
2022-12-28T08:29:10.067Z,84.77
2022-12-28T08:31:39.518Z,85.43
2022-12-28T08:34:08.635Z,84.94
2022-12-28T08:36:35.599Z,85.37
2022-12-28T08:39:03.310Z,84.87
2022-12-28T08:41:30.446Z,84.81
2022-12-28T08:43:58.394Z,85.14
2022-12-28T08:46:27.686Z,85.05
2022-12-28T08:48:56.763Z,85.31
2022-12-28T08:51:30.535Z,85.12
2022-12-28T08:53:57.327Z,85.17
2022-12-28T08:56:27.918Z,85.08
2022-12-28T08:58:55.090Z,85.00
2022-12-28T09:01:30.366Z,84.97
2022-12-28T09:03:59.608Z,85.31
2022-12-28T09:06:38.277Z,84.81
2022-12-28T09:09:07.525Z,85.27
2022-12-28T09:11:35.828Z,85.34
2022-12-28T09:14:04.155Z,85.23
2022-12-28T09:16:31.297Z,85.36
2022-12-28T09:19:00.505Z,85.07
2022-12-28T09:21:30.829Z,85.14
2022-12-28T09:23:58.389Z,85.46
2022-12-28T09:26:37.119Z,85.29
2022-12-28T09:29:06.345Z,84.72
2022-12-28T09:31:37.186Z,85.07
2022-12-28T09:34:34.948Z,84.95
2022-12-28T09:36:52.793Z,85.08
2022-12-28T09:39:22.800Z,85.58
2022-12-28T09:42:11.020Z,85.32
2022-12-28T09:45:01.805Z,85.15
2022-12-28T09:47:35.245Z,85.53
2022-12-28T09:50:29.939Z,85.32
2022-12-28T09:53:22.333Z,85.41
2022-12-28T09:55:57.532Z,85.23
2022-12-28T09:58:24.465Z,85.46
2022-12-28T10:00:56.011Z,84.94
2022-12-28T10:03:37.511Z,85.19
2022-12-28T10:06:10.912Z,85.32
2022-12-28T10:08:45.650Z,85.19
2022-12-28T10:11:18.802Z,85.19
2022-12-28T10:14:00.751Z,85.21
2022-12-28T10:16:32.602Z,85.44
2022-12-28T10:19:00.539Z,84.94
2022-12-28T10:21:33.353Z,85.50
2022-12-28T10:26:48.164Z,85.15
2022-12-28T10:29:22.938Z,85.56
2022-12-28T10:32:04.804Z,85.55
2022-12-28T10:34:34.101Z,85.17
2022-12-28T10:37:06.720Z,85.01
2022-12-28T10:39:49.953Z,85.25
2022-12-28T10:42:29.957Z,85.42
2022-12-28T10:45:04.223Z,85.10
2022-12-28T10:47:36.017Z,85.24
2022-12-28T10:50:36.528Z,85.36
2022-12-28T10:52:58.576Z,85.09
2022-12-28T10:55:33.761Z,85.02
2022-12-28T10:58:31.614Z,85.20
2022-12-28T11:01:23.484Z,84.72
2022-12-28T11:03:56.493Z,84.88
2022-12-28T11:06:27.581Z,84.97
2022-12-28T11:09:12.686Z,85.09
2022-12-28T11:11:40.039Z,84.96
2022-12-28T11:14:24.071Z,84.94
2022-12-28T11:16:51.074Z,85.09
2022-12-28T11:19:17.740Z,84.54
2022-12-28T11:21:44.793Z,84.52
2022-12-28T11:24:16.480Z,85.00
2022-12-28T11:26:46.548Z,84.49
2022-12-28T11:29:15.529Z,84.68
2022-12-28T11:31:49.572Z,84.96
2022-12-28T11:34:21.099Z,84.74
2022-12-28T11:36:48.740Z,84.71
2022-12-28T11:39:27.484Z,85.35
2022-12-28T11:42:28.108Z,85.14
2022-12-28T11:44:42.601Z,84.83
2022-12-28T11:47:18.170Z,84.90
2022-12-28T11:49:47.320Z,84.71
2022-12-28T11:52:17.191Z,84.57
2022-12-28T11:54:57.513Z,84.70
2022-12-28T11:57:43.907Z,84.48
2022-12-28T12:00:23.109Z,84.65
2022-12-28T12:02:50.355Z,84.75
2022-12-28T12:05:35.480Z,84.94
2022-12-28T12:08:17.543Z,84.90
2022-12-28T12:10:45.631Z,84.88
2022-12-28T12:13:27.793Z,85.12
2022-12-28T12:16:04.120Z,85.04
2022-12-28T12:18:44.373Z,84.92
2022-12-28T12:21:25.229Z,84.53
2022-12-28T12:23:56.745Z,84.48
2022-12-28T12:26:31.173Z,84.59
2022-12-28T12:29:06.538Z,84.72
2022-12-28T12:31:40.742Z,85.04
2022-12-28T12:34:19.968Z,84.79
2022-12-28T12:37:15.662Z,84.78
2022-12-28T12:40:06.953Z,84.71
2022-12-28T12:42:40.996Z,85.01
2022-12-28T12:45:13.605Z,84.79
2022-12-28T12:47:52.222Z,84.63
2022-12-28T12:50:29.965Z,84.91
2022-12-28T12:53:15.135Z,84.62
2022-12-28T12:55:41.755Z,84.96
2022-12-28T12:58:15.644Z,84.72
2022-12-28T13:00:58.067Z,84.91
2022-12-28T13:03:44.640Z,84.37
2022-12-28T13:06:20.329Z,84.89
2022-12-28T13:09:03.311Z,84.40
2022-12-28T13:11:38.813Z,84.68
2022-12-28T13:14:06.722Z,84.43
2022-12-28T13:16:33.706Z,84.11
2022-12-28T13:19:02.403Z,83.96
2022-12-28T13:21:43.954Z,84.21
2022-12-28T13:24:27.468Z,84.45
2022-12-28T13:26:56.920Z,84.30
2022-12-28T13:29:27.704Z,84.57
2022-12-28T13:31:55.339Z,84.33
2022-12-28T13:34:30.916Z,84.68
2022-12-28T13:37:00.389Z,84.15
2022-12-28T13:39:28.982Z,84.32
2022-12-28T13:42:18.753Z,84.50
2022-12-28T13:44:59.199Z,84.05
2022-12-28T13:47:31.015Z,84.02
2022-12-28T13:50:20.940Z,84.35
2022-12-28T13:53:04.918Z,84.52
2022-12-28T13:55:45.976Z,83.94
2022-12-28T13:58:27.233Z,83.83
2022-12-28T14:00:56.875Z,83.56
2022-12-28T14:03:24.554Z,83.76
2022-12-28T14:05:56.098Z,83.54
2022-12-28T14:08:23.111Z,83.95
2022-12-28T14:10:51.541Z,83.63
2022-12-28T14:13:19.465Z,83.45
2022-12-28T14:15:47.751Z,83.56
2022-12-28T14:18:18.337Z,83.67
2022-12-28T14:20:58.025Z,83.65
2022-12-28T14:23:25.882Z,83.50
2022-12-28T14:25:54.162Z,83.39
2022-12-28T14:28:47.759Z,83.46
2022-12-28T14:31:21.809Z,83.34
2022-12-28T14:33:54.915Z,83.38
2022-12-28T14:36:26.304Z,83.34
2022-12-28T14:39:01.092Z,83.58
2022-12-28T14:41:35.700Z,83.31
2022-12-28T14:44:04.405Z,83.29
2022-12-28T14:46:36.634Z,83.29
2022-12-28T14:49:24.802Z,83.28
2022-12-28T14:51:51.706Z,83.17
2022-12-28T14:54:26.406Z,83.42
2022-12-28T14:56:59.807Z,83.74
2022-12-28T14:59:34.394Z,83.25
2022-12-28T15:02:01.180Z,82.92
2022-12-28T15:04:38.519Z,83.08
2022-12-28T15:07:11.970Z,82.87
2022-12-28T15:09:38.839Z,83.18
2022-12-28T15:12:14.120Z,82.70
2022-12-28T15:14:41.561Z,82.86
2022-12-28T15:17:09.688Z,82.82
2022-12-28T15:19:36.406Z,82.63
2022-12-28T15:22:03.064Z,82.52
2022-12-28T15:24:33.897Z,82.59
2022-12-28T15:27:01.915Z,82.91
2022-12-28T15:29:47.900Z,82.55
2022-12-28T15:32:15.284Z,82.97
2022-12-28T15:34:42.047Z,82.46
2022-12-28T15:37:08.847Z,82.54
2022-12-28T15:39:35.543Z,82.77
2022-12-28T15:42:02.252Z,82.52
2022-12-28T15:44:28.977Z,82.70
2022-12-28T15:46:55.745Z,82.49
2022-12-28T15:49:22.437Z,82.75
2022-12-28T15:51:49.299Z,82.29
2022-12-28T15:54:16.035Z,82.08
2022-12-28T15:56:42.823Z,82.22
2022-12-28T15:59:14.568Z,82.20
2022-12-28T16:01:44.262Z,82.16
2022-12-28T16:04:11.196Z,82.09
2022-12-28T16:06:43.875Z,81.54
2022-12-28T16:09:12.510Z,81.82
2022-12-28T16:11:40.889Z,81.79
2022-12-28T16:14:11.664Z,81.83
2022-12-28T16:16:39.880Z,82.19
2022-12-28T16:19:07.221Z,81.54
2022-12-28T16:21:34.441Z,82.16
2022-12-28T16:24:01.596Z,81.65
2022-12-28T16:26:28.625Z,81.90
2022-12-28T16:28:55.689Z,81.75
2022-12-28T16:31:34.026Z,82.07
2022-12-28T16:34:03.984Z,81.90
2022-12-28T16:36:31.493Z,81.67
2022-12-28T16:38:58.801Z,82.00
2022-12-28T16:41:28.853Z,81.87
2022-12-28T16:44:03.715Z,81.59
2022-12-28T16:46:30.386Z,82.08
2022-12-28T16:49:00.122Z,81.75
2022-12-28T16:51:26.980Z,82.07
2022-12-28T16:53:53.668Z,82.12
2022-12-28T16:56:20.370Z,81.96
2022-12-28T16:58:49.328Z,81.77
2022-12-28T17:01:16.853Z,82.21
2022-12-28T17:03:43.737Z,82.05
2022-12-28T17:06:10.916Z,81.81
2022-12-28T17:08:37.708Z,81.81
2022-12-28T17:11:09.236Z,82.24
2022-12-28T17:13:37.381Z,81.54
2022-12-28T17:16:04.738Z,82.04
2022-12-28T17:18:31.507Z,81.47
2022-12-28T17:21:01.877Z,81.90
2022-12-28T17:23:33.189Z,81.98
2022-12-28T17:26:00.054Z,81.45
2022-12-28T17:28:26.784Z,81.59
2022-12-28T17:31:08.324Z,81.82
2022-12-28T17:33:39.168Z,81.54
2022-12-28T17:36:06.835Z,81.47
2022-12-28T17:38:33.564Z,81.89
2022-12-28T17:41:00.232Z,81.78
2022-12-28T17:43:27.050Z,81.82
2022-12-28T17:45:53.840Z,81.49
2022-12-28T17:48:23.130Z,81.91
2022-12-28T17:50:49.856Z,81.46
2022-12-28T17:53:16.456Z,81.35
2022-12-28T17:55:43.160Z,81.50
2022-12-28T17:58:09.939Z,81.64
2022-12-28T18:00:36.636Z,81.61
2022-12-28T18:03:03.784Z,81.89
2022-12-28T18:05:31.631Z,81.92
2022-12-28T18:07:58.349Z,81.55
2022-12-28T18:10:25.027Z,81.90
2022-12-28T18:12:51.798Z,81.97
2022-12-28T18:15:18.437Z,82.06
2022-12-28T18:17:45.216Z,81.98
2022-12-28T18:20:11.940Z,82.18
2022-12-28T18:22:38.598Z,81.59
2022-12-28T18:25:05.985Z,81.97
2022-12-28T18:27:35.141Z,81.94
2022-12-28T18:30:02.201Z,81.84
2022-12-28T18:32:29.042Z,81.53
2022-12-28T18:34:55.787Z,81.85
2022-12-28T18:37:22.432Z,81.44
2022-12-28T18:39:49.195Z,81.90
2022-12-28T18:42:18.377Z,81.60
2022-12-28T18:44:48.453Z,81.68
2022-12-28T18:47:15.185Z,81.75
2022-12-28T18:49:46.895Z,81.83
2022-12-28T18:52:15.144Z,81.94
2022-12-28T18:54:42.019Z,81.55
2022-12-28T18:57:08.912Z,81.84
2022-12-28T18:59:35.677Z,81.62
2022-12-28T19:02:07.653Z,82.12
2022-12-28T19:04:35.833Z,81.59
2022-12-28T19:07:02.783Z,81.76
2022-12-28T19:09:29.508Z,81.52
2022-12-28T19:11:56.272Z,82.22
2022-12-28T19:14:22.941Z,81.76
2022-12-28T19:16:49.637Z,81.97
2022-12-28T19:19:17.685Z,82.21
2022-12-28T19:21:45.080Z,82.13
2022-12-28T19:24:17.092Z,82.35
2022-12-28T19:26:45.132Z,82.43
2022-12-28T19:29:12.624Z,82.47
2022-12-28T19:31:39.636Z,82.24
2022-12-28T19:34:06.416Z,82.71
2022-12-28T19:36:33.220Z,82.38
2022-12-28T19:38:59.899Z,82.54
2022-12-28T19:41:26.598Z,82.88
2022-12-28T19:43:53.593Z,82.62
2022-12-28T19:46:24.740Z,82.46
2022-12-28T19:48:54.464Z,83.12
2022-12-28T19:51:24.518Z,82.76
2022-12-28T19:53:54.456Z,82.72
2022-12-28T19:56:22.268Z,82.87
2022-12-28T19:58:49.138Z,82.86
2022-12-28T20:01:28.191Z,83.21
2022-12-28T20:03:55.728Z,83.34
2022-12-28T20:06:27.083Z,82.92
2022-12-28T20:08:56.379Z,82.81
2022-12-28T20:11:23.855Z,83.05
2022-12-28T20:14:00.075Z,83.42
2022-12-28T20:16:29.605Z,83.16
2022-12-28T20:18:56.803Z,82.79
2022-12-28T20:21:25.846Z,83.21
2022-12-28T20:23:54.251Z,82.94
2022-12-28T20:26:22.464Z,83.04
2022-12-28T20:28:50.410Z,83.36
2022-12-28T20:31:17.553Z,83.31
2022-12-28T20:33:44.936Z,83.42
2022-12-28T20:36:17.803Z,83.39
2022-12-28T20:38:46.291Z,83.43
2022-12-28T20:41:39.138Z,83.67
2022-12-28T20:44:09.299Z,83.43
2022-12-28T20:46:36.804Z,83.71
2022-12-28T20:49:04.169Z,84.05
2022-12-28T20:51:31.255Z,83.38
2022-12-28T20:53:58.532Z,83.78
2022-12-28T20:56:25.515Z,83.37
2022-12-28T20:58:53.511Z,83.66
2022-12-28T21:01:20.944Z,83.40
2022-12-28T21:03:47.983Z,83.78
2022-12-28T21:06:14.965Z,83.91
2022-12-28T21:08:41.648Z,83.44
2022-12-28T21:11:08.422Z,83.96
2022-12-28T21:13:39.232Z,83.90
2022-12-28T21:16:10.071Z,84.04
2022-12-28T21:18:36.932Z,84.09
2022-12-28T21:21:04.790Z,83.99
2022-12-28T21:23:32.264Z,84.10
2022-12-28T21:26:04.251Z,84.15
2022-12-28T21:28:31.130Z,84.03
2022-12-28T21:30:58.399Z,83.82
2022-12-28T21:33:25.104Z,83.96
2022-12-28T21:36:03.331Z,84.04
2022-12-28T21:38:31.180Z,83.65
2022-12-28T21:40:59.912Z,83.66
2022-12-28T21:43:27.421Z,83.33
2022-12-28T21:46:02.712Z,83.94
2022-12-28T21:48:37.050Z,83.46
2022-12-28T21:51:32.143Z,83.66
2022-12-28T21:54:00.725Z,83.73
2022-12-28T21:56:28.570Z,83.65
2022-12-28T21:58:57.090Z,83.92
2022-12-28T22:01:42.892Z,84.07
2022-12-28T22:04:34.636Z,83.58
2022-12-28T22:07:02.173Z,83.80
2022-12-28T22:09:47.614Z,83.83
2022-12-28T22:12:33.654Z,83.96
2022-12-28T22:15:20.553Z,83.78
2022-12-28T22:17:47.275Z,83.38
2022-12-28T22:20:15.630Z,83.91
2022-12-28T22:22:43.335Z,83.19
2022-12-28T22:25:11.899Z,83.54
2022-12-28T22:27:38.789Z,83.34
2022-12-28T22:30:06.145Z,83.69
2022-12-28T22:32:32.935Z,84.04
2022-12-28T22:34:59.535Z,84.04
2022-12-28T22:37:26.236Z,83.78
2022-12-28T22:39:53.058Z,83.44
2022-12-28T22:42:19.773Z,83.81
2022-12-28T22:44:46.460Z,84.06
2022-12-28T22:47:13.105Z,83.54
2022-12-28T22:49:39.750Z,83.69
2022-12-28T22:52:06.453Z,83.56
2022-12-28T22:54:33.111Z,83.35
2022-12-28T22:56:59.889Z,83.69
2022-12-28T22:59:26.749Z,83.52
2022-12-28T23:01:54.111Z,83.48
2022-12-28T23:04:21.218Z,83.19
2022-12-28T23:06:47.903Z,83.28
2022-12-28T23:09:14.674Z,83.30
2022-12-28T23:11:41.477Z,83.30
2022-12-28T23:14:42.649Z,83.23
2022-12-28T23:17:13.021Z,83.04
2022-12-28T23:19:59.301Z,82.93
2022-12-28T23:22:47.414Z,83.07
2022-12-28T23:25:38.161Z,82.78
2022-12-28T23:28:07.392Z,82.83
2022-12-28T23:30:34.343Z,82.85
2022-12-28T23:33:01.141Z,82.79
2022-12-28T23:35:28.106Z,82.41
2022-12-28T23:37:54.822Z,82.73
2022-12-28T23:40:22.957Z,82.58
2022-12-28T23:42:50.089Z,82.46
2022-12-28T23:45:18.150Z,82.53
2022-12-28T23:47:45.737Z,82.44
2022-12-28T23:50:14.315Z,82.58
2022-12-28T23:52:41.370Z,82.13
2022-12-28T23:55:09.983Z,82.24
2022-12-28T23:57:37.059Z,82.25
